sensor_id;sensor_type;location;lat;lon;timestamp;P1;durP1;ratioP1;P2;durP2;ratioP2
11443;SDS011;5778;47.856;12.154;2023-05-07T00:01:36;6.87;;;6.17;;
11443;SDS011;5778;47.856;12.154;2023-05-07T00:04:04;6.13;;;5.53;;
11443;SDS011;5778;47.856;12.154;2023-05-07T00:06:32;5.77;;;5.27;;
11443;SDS011;5778;47.856;12.154;2023-05-07T00:08:59;6.40;;;5.73;;
11443;SDS011;5778;47.856;12.154;2023-05-07T00:11:27;5.60;;;5.17;;
11443;SDS011;5778;47.856;12.154;2023-05-07T00:13:54;5.57;;;5.07;;
11443;SDS011;5778;47.856;12.154;2023-05-07T00:16:21;6.20;;;5.40;;
11443;SDS011;5778;47.856;12.154;2023-05-07T00:18:49;5.87;;;5.37;;
11443;SDS011;5778;47.856;12.154;2023-05-07T00:21:16;6.23;;;5.73;;
11443;SDS011;5778;47.856;12.154;2023-05-07T00:23:43;5.77;;;5.23;;
11443;SDS011;5778;47.856;12.154;2023-05-07T00:26:10;6.40;;;5.80;;
11443;SDS011;5778;47.856;12.154;2023-05-07T00:28:38;5.90;;;5.37;;
11443;SDS011;5778;47.856;12.154;2023-05-07T00:31:06;5.93;;;5.40;;
11443;SDS011;5778;47.856;12.154;2023-05-07T00:33:32;5.93;;;5.43;;
11443;SDS011;5778;47.856;12.154;2023-05-07T00:36:01;5.97;;;5.47;;
11443;SDS011;5778;47.856;12.154;2023-05-07T00:38:28;5.87;;;5.37;;
11443;SDS011;5778;47.856;12.154;2023-05-07T00:40:55;6.30;;;5.47;;
11443;SDS011;5778;47.856;12.154;2023-05-07T00:43:21;5.70;;;5.20;;
11443;SDS011;5778;47.856;12.154;2023-05-07T00:45:49;5.80;;;5.30;;
11443;SDS011;5778;47.856;12.154;2023-05-07T00:48:16;6.03;;;5.33;;
11443;SDS011;5778;47.856;12.154;2023-05-07T00:50:43;6.37;;;5.80;;
11443;SDS011;5778;47.856;12.154;2023-05-07T00:53:13;5.63;;;5.13;;
11443;SDS011;5778;47.856;12.154;2023-05-07T00:55:40;5.40;;;4.90;;
11443;SDS011;5778;47.856;12.154;2023-05-07T00:58:08;5.63;;;5.23;;
11443;SDS011;5778;47.856;12.154;2023-05-07T01:00:35;6.07;;;5.53;;
11443;SDS011;5778;47.856;12.154;2023-05-07T01:03:02;5.10;;;4.60;;
11443;SDS011;5778;47.856;12.154;2023-05-07T01:05:29;5.23;;;4.63;;
11443;SDS011;5778;47.856;12.154;2023-05-07T01:07:56;6.37;;;5.77;;
11443;SDS011;5778;47.856;12.154;2023-05-07T01:10:26;6.53;;;5.83;;
11443;SDS011;5778;47.856;12.154;2023-05-07T01:12:55;6.00;;;5.53;;
11443;SDS011;5778;47.856;12.154;2023-05-07T01:15:25;5.70;;;5.20;;
11443;SDS011;5778;47.856;12.154;2023-05-07T01:17:52;5.60;;;4.97;;
11443;SDS011;5778;47.856;12.154;2023-05-07T01:20:26;6.07;;;5.57;;
11443;SDS011;5778;47.856;12.154;2023-05-07T01:22:57;6.40;;;5.80;;
11443;SDS011;5778;47.856;12.154;2023-05-07T01:25:26;6.27;;;5.13;;
11443;SDS011;5778;47.856;12.154;2023-05-07T01:27:57;6.17;;;5.57;;
11443;SDS011;5778;47.856;12.154;2023-05-07T01:30:28;4.80;;;4.40;;
11443;SDS011;5778;47.856;12.154;2023-05-07T01:32:58;6.07;;;5.50;;
11443;SDS011;5778;47.856;12.154;2023-05-07T01:35:30;6.40;;;5.80;;
11443;SDS011;5778;47.856;12.154;2023-05-07T01:38:02;5.90;;;5.40;;
11443;SDS011;5778;47.856;12.154;2023-05-07T01:40:31;6.50;;;5.90;;
11443;SDS011;5778;47.856;12.154;2023-05-07T01:42:59;6.10;;;5.60;;
11443;SDS011;5778;47.856;12.154;2023-05-07T01:45:26;6.00;;;5.37;;
11443;SDS011;5778;47.856;12.154;2023-05-07T01:47:54;5.43;;;5.03;;
11443;SDS011;5778;47.856;12.154;2023-05-07T01:50:21;5.23;;;4.73;;
11443;SDS011;5778;47.856;12.154;2023-05-07T01:52:50;5.07;;;4.67;;
11443;SDS011;5778;47.856;12.154;2023-05-07T01:55:19;5.00;;;4.60;;
11443;SDS011;5778;47.856;12.154;2023-05-07T01:57:46;5.00;;;4.60;;
11443;SDS011;5778;47.856;12.154;2023-05-07T02:00:13;6.70;;;5.87;;
11443;SDS011;5778;47.856;12.154;2023-05-07T02:02:44;7.03;;;6.17;;
11443;SDS011;5778;47.856;12.154;2023-05-07T02:05:23;7.13;;;6.27;;
11443;SDS011;5778;47.856;12.154;2023-05-07T02:07:57;6.03;;;5.53;;
11443;SDS011;5778;47.856;12.154;2023-05-07T02:10:28;6.47;;;5.87;;
11443;SDS011;5778;47.856;12.154;2023-05-07T02:12:55;6.03;;;5.53;;
11443;SDS011;5778;47.856;12.154;2023-05-07T02:15:22;6.23;;;5.70;;
11443;SDS011;5778;47.856;12.154;2023-05-07T02:17:58;6.30;;;5.80;;
11443;SDS011;5778;47.856;12.154;2023-05-07T02:20:26;6.13;;;5.50;;
11443;SDS011;5778;47.856;12.154;2023-05-07T02:22:53;5.97;;;5.47;;
11443;SDS011;5778;47.856;12.154;2023-05-07T02:25:20;6.83;;;5.20;;
11443;SDS011;5778;47.856;12.154;2023-05-07T02:27:49;5.87;;;5.40;;
11443;SDS011;5778;47.856;12.154;2023-05-07T02:30:17;5.30;;;4.90;;
11443;SDS011;5778;47.856;12.154;2023-05-07T02:32:46;5.30;;;4.90;;
11443;SDS011;5778;47.856;12.154;2023-05-07T02:35:13;5.50;;;5.10;;
11443;SDS011;5778;47.856;12.154;2023-05-07T02:37:40;5.60;;;5.10;;
11443;SDS011;5778;47.856;12.154;2023-05-07T02:40:08;6.30;;;5.80;;
11443;SDS011;5778;47.856;12.154;2023-05-07T02:42:35;6.17;;;5.57;;
11443;SDS011;5778;47.856;12.154;2023-05-07T02:45:05;5.77;;;5.37;;
11443;SDS011;5778;47.856;12.154;2023-05-07T02:47:33;6.10;;;5.60;;
11443;SDS011;5778;47.856;12.154;2023-05-07T02:50:01;6.17;;;5.67;;
11443;SDS011;5778;47.856;12.154;2023-05-07T02:52:28;6.80;;;6.10;;
11443;SDS011;5778;47.856;12.154;2023-05-07T02:54:55;6.20;;;5.60;;
11443;SDS011;5778;47.856;12.154;2023-05-07T02:57:22;5.70;;;5.27;;
11443;SDS011;5778;47.856;12.154;2023-05-07T02:59:50;6.07;;;5.57;;
11443;SDS011;5778;47.856;12.154;2023-05-07T03:02:20;6.73;;;6.10;;
11443;SDS011;5778;47.856;12.154;2023-05-07T03:04:47;6.07;;;5.50;;
11443;SDS011;5778;47.856;12.154;2023-05-07T03:07:14;5.87;;;5.33;;
11443;SDS011;5778;47.856;12.154;2023-05-07T03:09:41;5.47;;;5.07;;
11443;SDS011;5778;47.856;12.154;2023-05-07T03:12:08;5.47;;;4.97;;
11443;SDS011;5778;47.856;12.154;2023-05-07T03:14:35;5.63;;;4.90;;
11443;SDS011;5778;47.856;12.154;2023-05-07T03:17:02;5.83;;;5.33;;
11443;SDS011;5778;47.856;12.154;2023-05-07T03:19:30;5.50;;;4.97;;
11443;SDS011;5778;47.856;12.154;2023-05-07T03:21:57;5.43;;;4.93;;
11443;SDS011;5778;47.856;12.154;2023-05-07T03:24:24;5.77;;;5.27;;
11443;SDS011;5778;47.856;12.154;2023-05-07T03:26:51;6.20;;;5.60;;
11443;SDS011;5778;47.856;12.154;2023-05-07T03:29:18;5.47;;;4.97;;
11443;SDS011;5778;47.856;12.154;2023-05-07T03:31:45;5.63;;;5.13;;
11443;SDS011;5778;47.856;12.154;2023-05-07T03:34:12;5.70;;;5.30;;
11443;SDS011;5778;47.856;12.154;2023-05-07T03:36:41;5.93;;;5.43;;
11443;SDS011;5778;47.856;12.154;2023-05-07T03:39:11;5.90;;;5.40;;
11443;SDS011;5778;47.856;12.154;2023-05-07T03:41:39;5.67;;;5.17;;
11443;SDS011;5778;47.856;12.154;2023-05-07T03:44:08;5.53;;;5.13;;
11443;SDS011;5778;47.856;12.154;2023-05-07T03:46:35;6.00;;;5.50;;
11443;SDS011;5778;47.856;12.154;2023-05-07T03:49:03;6.33;;;5.73;;
11443;SDS011;5778;47.856;12.154;2023-05-07T03:51:30;5.40;;;5.03;;
11443;SDS011;5778;47.856;12.154;2023-05-07T03:53:59;6.63;;;6.03;;
11443;SDS011;5778;47.856;12.154;2023-05-07T03:56:28;7.00;;;6.30;;
11443;SDS011;5778;47.856;12.154;2023-05-07T03:58:57;5.57;;;5.07;;
11443;SDS011;5778;47.856;12.154;2023-05-07T04:01:24;6.43;;;5.83;;
11443;SDS011;5778;47.856;12.154;2023-05-07T04:03:51;6.23;;;5.67;;
11443;SDS011;5778;47.856;12.154;2023-05-07T04:06:18;7.10;;;5.83;;
11443;SDS011;5778;47.856;12.154;2023-05-07T04:08:47;6.60;;;6.07;;
11443;SDS011;5778;47.856;12.154;2023-05-07T04:11:16;6.97;;;6.47;;
11443;SDS011;5778;47.856;12.154;2023-05-07T04:13:43;6.43;;;5.83;;
11443;SDS011;5778;47.856;12.154;2023-05-07T04:16:10;6.87;;;6.27;;
11443;SDS011;5778;47.856;12.154;2023-05-07T04:18:37;6.33;;;5.93;;
11443;SDS011;5778;47.856;12.154;2023-05-07T04:21:05;6.13;;;5.60;;
11443;SDS011;5778;47.856;12.154;2023-05-07T04:23:35;6.10;;;5.50;;
11443;SDS011;5778;47.856;12.154;2023-05-07T04:26:06;5.97;;;5.47;;
11443;SDS011;5778;47.856;12.154;2023-05-07T04:28:40;5.60;;;5.10;;
11443;SDS011;5778;47.856;12.154;2023-05-07T04:31:08;6.33;;;5.83;;
11443;SDS011;5778;47.856;12.154;2023-05-07T04:33:36;5.90;;;5.50;;
11443;SDS011;5778;47.856;12.154;2023-05-07T04:36:06;6.80;;;6.20;;
11443;SDS011;5778;47.856;12.154;2023-05-07T04:38:39;6.17;;;5.60;;
11443;SDS011;5778;47.856;12.154;2023-05-07T04:41:06;6.67;;;6.07;;
11443;SDS011;5778;47.856;12.154;2023-05-07T04:43:40;6.53;;;6.00;;
11443;SDS011;5778;47.856;12.154;2023-05-07T04:46:09;6.03;;;5.43;;
11443;SDS011;5778;47.856;12.154;2023-05-07T04:48:36;6.40;;;5.90;;
11443;SDS011;5778;47.856;12.154;2023-05-07T04:51:05;6.50;;;6.00;;
11443;SDS011;5778;47.856;12.154;2023-05-07T04:53:32;6.10;;;5.50;;
11443;SDS011;5778;47.856;12.154;2023-05-07T04:55:59;6.10;;;5.60;;
11443;SDS011;5778;47.856;12.154;2023-05-07T04:58:32;5.83;;;5.33;;
11443;SDS011;5778;47.856;12.154;2023-05-07T05:01:01;5.87;;;5.37;;
11443;SDS011;5778;47.856;12.154;2023-05-07T05:03:28;5.63;;;5.10;;
11443;SDS011;5778;47.856;12.154;2023-05-07T05:05:56;5.87;;;5.37;;
11443;SDS011;5778;47.856;12.154;2023-05-07T05:08:26;6.17;;;5.53;;
11443;SDS011;5778;47.856;12.154;2023-05-07T05:10:53;6.63;;;6.03;;
11443;SDS011;5778;47.856;12.154;2023-05-07T05:13:20;6.87;;;6.20;;
11443;SDS011;5778;47.856;12.154;2023-05-07T05:15:47;7.40;;;6.60;;
11443;SDS011;5778;47.856;12.154;2023-05-07T05:18:16;8.20;;;7.50;;
11443;SDS011;5778;47.856;12.154;2023-05-07T05:20:43;8.50;;;7.70;;
11443;SDS011;5778;47.856;12.154;2023-05-07T05:23:11;8.17;;;7.10;;
11443;SDS011;5778;47.856;12.154;2023-05-07T05:25:38;7.00;;;6.43;;
11443;SDS011;5778;47.856;12.154;2023-05-07T05:28:07;7.20;;;6.60;;
11443;SDS011;5778;47.856;12.154;2023-05-07T05:30:34;6.77;;;6.27;;
11443;SDS011;5778;47.856;12.154;2023-05-07T05:33:01;8.43;;;7.63;;
11443;SDS011;5778;47.856;12.154;2023-05-07T05:35:29;9.10;;;8.33;;
11443;SDS011;5778;47.856;12.154;2023-05-07T05:37:58;10.57;;;9.57;;
11443;SDS011;5778;47.856;12.154;2023-05-07T05:40:25;11.73;;;10.67;;
11443;SDS011;5778;47.856;12.154;2023-05-07T05:42:53;11.27;;;10.37;;
11443;SDS011;5778;47.856;12.154;2023-05-07T05:45:21;10.77;;;9.77;;
11443;SDS011;5778;47.856;12.154;2023-05-07T05:47:48;11.47;;;10.47;;
11443;SDS011;5778;47.856;12.154;2023-05-07T05:50:15;9.43;;;8.47;;
11443;SDS011;5778;47.856;12.154;2023-05-07T05:52:45;7.43;;;6.83;;
11443;SDS011;5778;47.856;12.154;2023-05-07T05:55:11;8.27;;;7.57;;
11443;SDS011;5778;47.856;12.154;2023-05-07T05:57:38;8.33;;;7.60;;
11443;SDS011;5778;47.856;12.154;2023-05-07T06:00:06;9.30;;;8.50;;
11443;SDS011;5778;47.856;12.154;2023-05-07T06:02:43;9.20;;;8.40;;
11443;SDS011;5778;47.856;12.154;2023-05-07T06:05:14;8.10;;;7.40;;
11443;SDS011;5778;47.856;12.154;2023-05-07T06:07:42;8.53;;;7.30;;
11443;SDS011;5778;47.856;12.154;2023-05-07T06:10:11;7.93;;;7.17;;
11443;SDS011;5778;47.856;12.154;2023-05-07T06:12:39;8.07;;;7.37;;
11443;SDS011;5778;47.856;12.154;2023-05-07T06:15:06;8.07;;;7.37;;
11443;SDS011;5778;47.856;12.154;2023-05-07T06:17:33;8.03;;;7.17;;
11443;SDS011;5778;47.856;12.154;2023-05-07T06:20:01;7.17;;;6.53;;
11443;SDS011;5778;47.856;12.154;2023-05-07T06:22:28;8.43;;;6.90;;
11443;SDS011;5778;47.856;12.154;2023-05-07T06:24:55;6.97;;;6.47;;
11443;SDS011;5778;47.856;12.154;2023-05-07T06:27:23;7.07;;;6.47;;
11443;SDS011;5778;47.856;12.154;2023-05-07T06:29:50;7.33;;;6.63;;
11443;SDS011;5778;47.856;12.154;2023-05-07T06:32:17;7.73;;;6.90;;
11443;SDS011;5778;47.856;12.154;2023-05-07T06:34:45;6.33;;;5.83;;
11443;SDS011;5778;47.856;12.154;2023-05-07T06:37:14;6.00;;;5.40;;
11443;SDS011;5778;47.856;12.154;2023-05-07T06:39:53;7.50;;;6.80;;
11443;SDS011;5778;47.856;12.154;2023-05-07T06:42:21;6.77;;;6.17;;
11443;SDS011;5778;47.856;12.154;2023-05-07T06:44:50;6.37;;;5.87;;
11443;SDS011;5778;47.856;12.154;2023-05-07T06:47:17;6.97;;;6.27;;
11443;SDS011;5778;47.856;12.154;2023-05-07T06:49:49;6.87;;;6.13;;
11443;SDS011;5778;47.856;12.154;2023-05-07T06:52:18;6.40;;;5.80;;
11443;SDS011;5778;47.856;12.154;2023-05-07T06:54:47;7.43;;;6.73;;
11443;SDS011;5778;47.856;12.154;2023-05-07T06:57:16;6.53;;;5.33;;
11443;SDS011;5778;47.856;12.154;2023-05-07T06:59:43;6.90;;;6.20;;
11443;SDS011;5778;47.856;12.154;2023-05-07T07:02:12;8.93;;;6.00;;
11443;SDS011;5778;47.856;12.154;2023-05-07T07:04:54;6.10;;;5.60;;
11443;SDS011;5778;47.856;12.154;2023-05-07T07:07:22;6.20;;;5.60;;
11443;SDS011;5778;47.856;12.154;2023-05-07T07:09:49;5.80;;;5.30;;
11443;SDS011;5778;47.856;12.154;2023-05-07T07:12:18;6.13;;;5.67;;
11443;SDS011;5778;47.856;12.154;2023-05-07T07:18:07;6.40;;;5.40;;
11443;SDS011;5778;47.856;12.154;2023-05-07T07:20:33;6.17;;;5.57;;
11443;SDS011;5778;47.856;12.154;2023-05-07T07:23:01;8.73;;;6.57;;
11443;SDS011;5778;47.856;12.154;2023-05-07T07:25:28;6.40;;;5.67;;
11443;SDS011;5778;47.856;12.154;2023-05-07T07:27:55;6.07;;;5.47;;
11443;SDS011;5778;47.856;12.154;2023-05-07T07:30:24;5.73;;;4.50;;
11443;SDS011;5778;47.856;12.154;2023-05-07T07:32:51;5.43;;;4.50;;
11443;SDS011;5778;47.856;12.154;2023-05-07T07:35:20;5.03;;;4.37;;
11443;SDS011;5778;47.856;12.154;2023-05-07T07:37:48;5.60;;;4.43;;
11443;SDS011;5778;47.856;12.154;2023-05-07T07:40:16;4.77;;;4.37;;
11443;SDS011;5778;47.856;12.154;2023-05-07T07:42:44;4.80;;;4.40;;
11443;SDS011;5778;47.856;12.154;2023-05-07T07:45:11;4.40;;;4.10;;
11443;SDS011;5778;47.856;12.154;2023-05-07T07:47:43;5.57;;;4.93;;
11443;SDS011;5778;47.856;12.154;2023-05-07T07:50:10;4.80;;;4.27;;
11443;SDS011;5778;47.856;12.154;2023-05-07T07:52:38;4.70;;;4.33;;
11443;SDS011;5778;47.856;12.154;2023-05-07T07:55:07;5.90;;;4.50;;
11443;SDS011;5778;47.856;12.154;2023-05-07T07:57:36;4.27;;;3.93;;
11443;SDS011;5778;47.856;12.154;2023-05-07T08:00:04;4.30;;;3.90;;
11443;SDS011;5778;47.856;12.154;2023-05-07T08:02:42;4.80;;;4.40;;
11443;SDS011;5778;47.856;12.154;2023-05-07T08:05:13;4.27;;;3.87;;
11443;SDS011;5778;47.856;12.154;2023-05-07T08:07:42;4.20;;;3.83;;
11443;SDS011;5778;47.856;12.154;2023-05-07T08:10:11;4.73;;;3.70;;
11443;SDS011;5778;47.856;12.154;2023-05-07T08:12:38;5.43;;;3.30;;
11443;SDS011;5778;47.856;12.154;2023-05-07T08:15:05;3.03;;;2.70;;
11443;SDS011;5778;47.856;12.154;2023-05-07T08:17:33;3.00;;;2.60;;
11443;SDS011;5778;47.856;12.154;2023-05-07T08:20:00;3.67;;;2.77;;
11443;SDS011;5778;47.856;12.154;2023-05-07T08:22:28;2.83;;;2.47;;
11443;SDS011;5778;47.856;12.154;2023-05-07T08:25:01;2.70;;;2.50;;
11443;SDS011;5778;47.856;12.154;2023-05-07T08:27:28;2.57;;;2.37;;
11443;SDS011;5778;47.856;12.154;2023-05-07T08:29:55;2.70;;;2.50;;
11443;SDS011;5778;47.856;12.154;2023-05-07T08:32:22;2.77;;;2.57;;
11443;SDS011;5778;47.856;12.154;2023-05-07T08:34:49;4.10;;;2.57;;
11443;SDS011;5778;47.856;12.154;2023-05-07T08:37:16;3.63;;;2.80;;
11443;SDS011;5778;47.856;12.154;2023-05-07T08:39:44;2.90;;;2.60;;
11443;SDS011;5778;47.856;12.154;2023-05-07T08:42:18;2.70;;;2.50;;
11443;SDS011;5778;47.856;12.154;2023-05-07T08:44:50;2.53;;;2.33;;
11443;SDS011;5778;47.856;12.154;2023-05-07T08:47:19;2.87;;;2.40;;
11443;SDS011;5778;47.856;12.154;2023-05-07T08:49:59;3.50;;;2.90;;
11443;SDS011;5778;47.856;12.154;2023-05-07T08:52:26;3.13;;;2.30;;
11443;SDS011;5778;47.856;12.154;2023-05-07T08:54:53;2.20;;;2.00;;
11443;SDS011;5778;47.856;12.154;2023-05-07T08:57:24;2.00;;;1.90;;
11443;SDS011;5778;47.856;12.154;2023-05-07T08:59:52;1.50;;;1.40;;
11443;SDS011;5778;47.856;12.154;2023-05-07T09:02:19;1.53;;;1.43;;
11443;SDS011;5778;47.856;12.154;2023-05-07T09:04:46;1.40;;;1.40;;
11443;SDS011;5778;47.856;12.154;2023-05-07T09:07:13;1.30;;;1.20;;
11443;SDS011;5778;47.856;12.154;2023-05-07T09:09:43;1.93;;;1.30;;
11443;SDS011;5778;47.856;12.154;2023-05-07T09:12:12;2.47;;;1.30;;
11443;SDS011;5778;47.856;12.154;2023-05-07T09:14:41;1.67;;;1.20;;
11443;SDS011;5778;47.856;12.154;2023-05-07T09:17:08;1.30;;;1.20;;
11443;SDS011;5778;47.856;12.154;2023-05-07T09:19:36;2.13;;;1.50;;
11443;SDS011;5778;47.856;12.154;2023-05-07T09:22:05;2.23;;;1.67;;
11443;SDS011;5778;47.856;12.154;2023-05-07T09:24:47;2.10;;;1.57;;
11443;SDS011;5778;47.856;12.154;2023-05-07T09:27:16;1.70;;;1.60;;
11443;SDS011;5778;47.856;12.154;2023-05-07T09:29:46;1.43;;;1.33;;
11443;SDS011;5778;47.856;12.154;2023-05-07T09:32:15;1.50;;;1.40;;
11443;SDS011;5778;47.856;12.154;2023-05-07T09:34:42;1.20;;;1.20;;
11443;SDS011;5778;47.856;12.154;2023-05-07T09:37:10;3.23;;;1.33;;
11443;SDS011;5778;47.856;12.154;2023-05-07T09:39:40;1.50;;;1.40;;
11443;SDS011;5778;47.856;12.154;2023-05-07T09:42:08;1.60;;;1.50;;
11443;SDS011;5778;47.856;12.154;2023-05-07T09:44:36;2.57;;;1.70;;
11443;SDS011;5778;47.856;12.154;2023-05-07T09:47:09;3.07;;;1.70;;
11443;SDS011;5778;47.856;12.154;2023-05-07T09:49:43;2.00;;;1.50;;
11443;SDS011;5778;47.856;12.154;2023-05-07T09:52:17;1.57;;;1.47;;
11443;SDS011;5778;47.856;12.154;2023-05-07T09:54:48;1.47;;;1.37;;
11443;SDS011;5778;47.856;12.154;2023-05-07T09:57:19;1.63;;;1.53;;
11443;SDS011;5778;47.856;12.154;2023-05-07T09:59:51;1.77;;;1.37;;
11443;SDS011;5778;47.856;12.154;2023-05-07T10:02:22;1.10;;;1.10;;
11443;SDS011;5778;47.856;12.154;2023-05-07T10:04:52;2.70;;;1.47;;
11443;SDS011;5778;47.856;12.154;2023-05-07T10:07:26;1.40;;;1.30;;
11443;SDS011;5778;47.856;12.154;2023-05-07T10:09:56;1.37;;;1.27;;
11443;SDS011;5778;47.856;12.154;2023-05-07T10:12:31;2.10;;;1.50;;
11443;SDS011;5778;47.856;12.154;2023-05-07T10:15:05;1.80;;;1.30;;
11443;SDS011;5778;47.856;12.154;2023-05-07T10:17:36;1.27;;;1.17;;
11443;SDS011;5778;47.856;12.154;2023-05-07T10:20:05;1.30;;;1.13;;
11443;SDS011;5778;47.856;12.154;2023-05-07T10:22:37;1.53;;;1.27;;
11443;SDS011;5778;47.856;12.154;2023-05-07T10:25:06;1.57;;;1.47;;
11443;SDS011;5778;47.856;12.154;2023-05-07T10:27:41;1.17;;;1.00;;
11443;SDS011;5778;47.856;12.154;2023-05-07T10:30:12;2.13;;;1.30;;
11443;SDS011;5778;47.856;12.154;2023-05-07T10:32:48;1.90;;;1.70;;
11443;SDS011;5778;47.856;12.154;2023-05-07T10:35:29;0.97;;;0.97;;
11443;SDS011;5778;47.856;12.154;2023-05-07T10:38:00;1.20;;;1.10;;
11443;SDS011;5778;47.856;12.154;2023-05-07T10:40:30;1.97;;;1.00;;
11443;SDS011;5778;47.856;12.154;2023-05-07T10:42:59;2.00;;;1.30;;
11443;SDS011;5778;47.856;12.154;2023-05-07T10:45:31;2.07;;;1.20;;
11443;SDS011;5778;47.856;12.154;2023-05-07T10:48:10;1.30;;;1.20;;
11443;SDS011;5778;47.856;12.154;2023-05-07T10:50:40;1.20;;;1.17;;
11443;SDS011;5778;47.856;12.154;2023-05-07T10:53:21;2.67;;;1.23;;
11443;SDS011;5778;47.856;12.154;2023-05-07T11:02:04;1.67;;;1.30;;
11443;SDS011;5778;47.856;12.154;2023-05-07T11:05:23;1.53;;;1.10;;
11443;SDS011;5778;47.856;12.154;2023-05-07T11:08:03;2.07;;;1.33;;
11443;SDS011;5778;47.856;12.154;2023-05-07T11:10:52;2.27;;;1.10;;
11443;SDS011;5778;47.856;12.154;2023-05-07T11:13:42;1.50;;;1.20;;
11443;SDS011;5778;47.856;12.154;2023-05-07T11:16:19;1.10;;;1.10;;
11443;SDS011;5778;47.856;12.154;2023-05-07T11:18:51;1.17;;;1.10;;
11443;SDS011;5778;47.856;12.154;2023-05-07T11:21:34;1.13;;;1.03;;
11443;SDS011;5778;47.856;12.154;2023-05-07T11:24:21;0.97;;;0.97;;
11443;SDS011;5778;47.856;12.154;2023-05-07T11:26:53;1.23;;;1.13;;
11443;SDS011;5778;47.856;12.154;2023-05-07T11:29:22;1.20;;;1.10;;
11443;SDS011;5778;47.856;12.154;2023-05-07T11:31:55;1.40;;;1.30;;
11443;SDS011;5778;47.856;12.154;2023-05-07T11:34:28;1.10;;;1.10;;
11443;SDS011;5778;47.856;12.154;2023-05-07T11:36:58;4.93;;;1.10;;
11443;SDS011;5778;47.856;12.154;2023-05-07T11:39:42;2.00;;;1.20;;
11443;SDS011;5778;47.856;12.154;2023-05-07T11:44:54;0.97;;;0.90;;
11443;SDS011;5778;47.856;12.154;2023-05-07T11:47:21;1.50;;;1.20;;
11443;SDS011;5778;47.856;12.154;2023-05-07T11:49:48;1.30;;;1.20;;
11443;SDS011;5778;47.856;12.154;2023-05-07T11:52:19;2.40;;;1.20;;
11443;SDS011;5778;47.856;12.154;2023-05-07T11:54:50;1.27;;;1.17;;
11443;SDS011;5778;47.856;12.154;2023-05-07T11:57:18;1.17;;;1.07;;
11443;SDS011;5778;47.856;12.154;2023-05-07T11:59:45;1.43;;;1.27;;
11443;SDS011;5778;47.856;12.154;2023-05-07T12:02:13;1.30;;;1.20;;
11443;SDS011;5778;47.856;12.154;2023-05-07T12:04:41;2.63;;;1.40;;
11443;SDS011;5778;47.856;12.154;2023-05-07T12:07:10;1.67;;;1.10;;
11443;SDS011;5778;47.856;12.154;2023-05-07T12:09:40;1.90;;;1.10;;
11443;SDS011;5778;47.856;12.154;2023-05-07T12:12:07;2.47;;;1.20;;
11443;SDS011;5778;47.856;12.154;2023-05-07T12:14:37;1.57;;;1.00;;
11443;SDS011;5778;47.856;12.154;2023-05-07T12:17:04;2.93;;;1.17;;
11443;SDS011;5778;47.856;12.154;2023-05-07T12:19:32;1.00;;;1.00;;
11443;SDS011;5778;47.856;12.154;2023-05-07T12:22:00;1.13;;;0.90;;
11443;SDS011;5778;47.856;12.154;2023-05-07T12:24:28;1.33;;;1.23;;
11443;SDS011;5778;47.856;12.154;2023-05-07T12:26:57;0.90;;;0.90;;
11443;SDS011;5778;47.856;12.154;2023-05-07T12:29:24;1.90;;;1.20;;
11443;SDS011;5778;47.856;12.154;2023-05-07T12:31:52;1.48;;;1.10;;
11443;SDS011;5778;47.856;12.154;2023-05-07T12:34:18;1.25;;;1.13;;
11443;SDS011;5778;47.856;12.154;2023-05-07T12:36:45;1.63;;;1.10;;
11443;SDS011;5778;47.856;12.154;2023-05-07T12:39:14;2.60;;;1.70;;
11443;SDS011;5778;47.856;12.154;2023-05-07T12:41:54;1.35;;;1.20;;
11443;SDS011;5778;47.856;12.154;2023-05-07T12:44:25;1.33;;;1.20;;
11443;SDS011;5778;47.856;12.154;2023-05-07T12:46:55;1.27;;;1.13;;
11443;SDS011;5778;47.856;12.154;2023-05-07T12:49:22;2.13;;;1.20;;
11443;SDS011;5778;47.856;12.154;2023-05-07T12:51:50;1.20;;;1.10;;
11443;SDS011;5778;47.856;12.154;2023-05-07T12:54:27;2.45;;;1.13;;
11443;SDS011;5778;47.856;12.154;2023-05-07T12:56:59;2.33;;;1.20;;
11443;SDS011;5778;47.856;12.154;2023-05-07T12:59:32;1.40;;;1.30;;
11443;SDS011;5778;47.856;12.154;2023-05-07T13:02:00;1.48;;;1.20;;
11443;SDS011;5778;47.856;12.154;2023-05-07T13:04:27;1.10;;;1.10;;
11443;SDS011;5778;47.856;12.154;2023-05-07T13:06:54;1.60;;;1.50;;
11443;SDS011;5778;47.856;12.154;2023-05-07T13:09:21;0.98;;;0.98;;
11443;SDS011;5778;47.856;12.154;2023-05-07T13:11:48;1.20;;;1.10;;
11443;SDS011;5778;47.856;12.154;2023-05-07T13:14:16;1.48;;;1.38;;
11443;SDS011;5778;47.856;12.154;2023-05-07T13:16:47;1.55;;;1.40;;
11443;SDS011;5778;47.856;12.154;2023-05-07T13:19:14;2.10;;;1.60;;
11443;SDS011;5778;47.856;12.154;2023-05-07T13:21:42;1.92;;;1.58;;
11443;SDS011;5778;47.856;12.154;2023-05-07T13:24:09;1.42;;;1.30;;
11443;SDS011;5778;47.856;12.154;2023-05-07T13:26:36;1.45;;;1.35;;
11443;SDS011;5778;47.856;12.154;2023-05-07T13:29:03;1.83;;;1.30;;
11443;SDS011;5778;47.856;12.154;2023-05-07T13:31:30;1.67;;;1.50;;
11443;SDS011;5778;47.856;12.154;2023-05-07T13:34:00;2.50;;;1.70;;
11443;SDS011;5778;47.856;12.154;2023-05-07T13:36:27;4.73;;;1.73;;
11443;SDS011;5778;47.856;12.154;2023-05-07T13:38:54;2.23;;;1.70;;
11443;SDS011;5778;47.856;12.154;2023-05-07T13:41:21;1.50;;;1.40;;
11443;SDS011;5778;47.856;12.154;2023-05-07T13:43:48;3.10;;;1.57;;
11443;SDS011;5778;47.856;12.154;2023-05-07T13:46:15;2.30;;;1.80;;
11443;SDS011;5778;47.856;12.154;2023-05-07T13:48:42;1.40;;;1.30;;
11443;SDS011;5778;47.856;12.154;2023-05-07T13:51:11;3.87;;;2.00;;
11443;SDS011;5778;47.856;12.154;2023-05-07T13:53:38;2.27;;;1.50;;
11443;SDS011;5778;47.856;12.154;2023-05-07T13:56:05;1.70;;;1.60;;
11443;SDS011;5778;47.856;12.154;2023-05-07T13:58:31;3.97;;;1.80;;
11443;SDS011;5778;47.856;12.154;2023-05-07T14:00:59;1.60;;;1.50;;
11443;SDS011;5778;47.856;12.154;2023-05-07T14:03:25;1.90;;;1.70;;
11443;SDS011;5778;47.856;12.154;2023-05-07T14:05:52;1.67;;;1.57;;
11443;SDS011;5778;47.856;12.154;2023-05-07T14:08:21;2.07;;;1.43;;
11443;SDS011;5778;47.856;12.154;2023-05-07T14:10:48;1.33;;;1.27;;
11443;SDS011;5778;47.856;12.154;2023-05-07T14:13:15;1.80;;;1.70;;
11443;SDS011;5778;47.856;12.154;2023-05-07T14:15:41;1.50;;;1.40;;
11443;SDS011;5778;47.856;12.154;2023-05-07T14:18:11;1.40;;;1.30;;
11443;SDS011;5778;47.856;12.154;2023-05-07T14:20:38;1.83;;;1.70;;
11443;SDS011;5778;47.856;12.154;2023-05-07T14:23:05;3.67;;;1.57;;
11443;SDS011;5778;47.856;12.154;2023-05-07T14:25:33;1.50;;;1.40;;
11443;SDS011;5778;47.856;12.154;2023-05-07T14:28:00;2.73;;;1.50;;
11443;SDS011;5778;47.856;12.154;2023-05-07T14:30:27;1.70;;;1.60;;
11443;SDS011;5778;47.856;12.154;2023-05-07T14:32:54;1.90;;;1.70;;
11443;SDS011;5778;47.856;12.154;2023-05-07T14:35:21;2.70;;;1.50;;
11443;SDS011;5778;47.856;12.154;2023-05-07T14:37:47;1.70;;;1.60;;
11443;SDS011;5778;47.856;12.154;2023-05-07T14:40:14;2.10;;;1.30;;
11443;SDS011;5778;47.856;12.154;2023-05-07T14:42:43;1.60;;;1.50;;
11443;SDS011;5778;47.856;12.154;2023-05-07T14:45:10;2.37;;;1.70;;
11443;SDS011;5778;47.856;12.154;2023-05-07T14:47:38;1.90;;;1.70;;
11443;SDS011;5778;47.856;12.154;2023-05-07T14:50:05;2.03;;;1.70;;
11443;SDS011;5778;47.856;12.154;2023-05-07T14:52:32;1.80;;;1.40;;
11443;SDS011;5778;47.856;12.154;2023-05-07T14:54:59;1.70;;;1.60;;
11443;SDS011;5778;47.856;12.154;2023-05-07T14:57:26;1.80;;;1.70;;
11443;SDS011;5778;47.856;12.154;2023-05-07T14:59:54;1.70;;;1.50;;
11443;SDS011;5778;47.856;12.154;2023-05-07T15:02:21;2.97;;;1.70;;
11443;SDS011;5778;47.856;12.154;2023-05-07T15:04:48;1.67;;;1.57;;
11443;SDS011;5778;47.856;12.154;2023-05-07T15:07:15;1.30;;;1.30;;
11443;SDS011;5778;47.856;12.154;2023-05-07T15:09:42;1.70;;;1.60;;
11443;SDS011;5778;47.856;12.154;2023-05-07T15:12:10;1.77;;;1.50;;